CheckWX is a tool to help pilots better visualize weather data.  It is not intended as a substitute for an official pre-flight weather briefing.

03:25:02 UTC

KPTW METAR
Heritage Field Airport
Pottstown, Pennsylvania, USA
Current

31 mins ago

KPTW 260254Z AUTO VRB04KT 10SM FEW095 17/12 A3009 RMK AO2 SLP184 60000 T01670117 55002 $
Observed
May-26 @ 02:54 UTC
Wind
  • Variable at 4 KTS
Visibility
10 SM
Flight Rules
VFR
Cloud Levels
  • Few at 9,500' AGL
Temperature
17°C / 63°F
Dewpoint
12°C / 54°F
Humidity
73%
Altimeter
30.09" Hg
Pressure
1018.92 hPa
Previous

2 hours ago

KPTW 260154Z AUTO VRB04KT 10SM CLR 17/12 A3008 RMK AO2 SLP184 T01720117 $
Observed
May-26 @ 01:54 UTC
Wind
  • Variable at 4 KTS
Visibility
10 SM
Flight Rules
VFR
Cloud Levels
  • Clear skies
Temperature
17°C / 63°F
Dewpoint
12°C / 54°F
Humidity
73%
Altimeter
30.08" Hg
Pressure
1018.62 hPa
Previous

3 hours ago

KPTW 260054Z AUTO 17007KT 140V200 10SM CLR 18/12 A3007 RMK AO2 RAB2355E18 SLP178 P0000 T01830117 $
Observed
May-26 @ 00:54 UTC
Wind
  • 170° at 7 KTS
Visibility
10 SM
Flight Rules
VFR
Cloud Levels
  • Clear skies
Temperature
18°C / 64°F
Dewpoint
12°C / 54°F
Humidity
68%
Altimeter
30.07" Hg
Pressure
1018.32 hPa
Current Rain
0.01"